Latest Weather Observations for Scone Airport

IDN60801

Issued at 9:05 pm EST Saturday 26 July 2014 (issued every 30 minutes, with the page automatically refreshed every 10 minutes)

About weather observations | Map of weather stations | Latest weather observations for NSW | Other Formats
Station Details ID: 061363 Name: SCONE AIRPORT AWS Lat: -32.03 Lon: 150.83 Height: 221.4 m
Data from the previous 72 hours. | See also: Recent months at Scone Airport
Date/Time
EST
Temp
°C
App
Temp
°C
Dew
Point
Rel
Hum
%
Delta-T
°C
Wind Press
QNH
hPa
Press
MSL
hPa
Rain
since 9 am
mm
Dir
 
Spd
km/h
Gust
km/h
Spd
kts
Gust
kts
26/09:00pm 7.8 6.9 7.7 99 0.0 NNE 2 7 1 4 1024.5 1024.8 8.4
26/08:30pm 8.2 7.8 8.1 99 0.0 ENE 0 0 0 0 1024.2 - 8.4
26/08:00pm 8.8 8.5 8.5 98 0.1 CALM 0 0 0 0 1024.0 - 8.4
26/07:30pm 9.6 8.4 9.5 99 0.1 NE 6 7 3 4 1023.7 - 8.4
26/07:00pm 10.2 8.9 10.0 99 0.1 N 7 7 4 4 1023.4 - 8.4
26/06:30pm 10.5 9.7 9.7 95 0.4 NW 4 7 2 4 1023.2 - 8.4
26/06:00pm 11.3 9.6 10.0 92 0.7 NW 9 11 5 6 1022.9 1023.2 8.4
26/05:30pm 13.1 12.9 10.5 84 1.4 NNE 2 7 1 4 1022.4 - 8.4
26/05:00pm 14.9 14.2 11.3 79 1.9 NE 6 7 3 4 1022.1 - 8.4
26/04:30pm 16.0 15.3 12.0 77 2.2 NNE 7 9 4 5 1022.1 - 8.4
26/04:00pm 16.7 15.6 10.1 65 3.5 NW 6 9 3 5 1022.0 - 8.4
26/03:30pm 16.1 15.3 11.1 72 2.7 NNW 6 9 3 5 1022.2 - 8.4
26/03:00pm 14.3 13.5 11.8 85 1.4 NNW 7 9 4 5 1022.2 1022.5 8.4
26/02:30pm 13.3 9.9 10.5 83 1.5 WNW 19 32 10 17 1022.1 - 8.4
26/02:10pm 13.0 6.2 9.3 78 1.9 W 35 56 19 30 1021.8 - 5.6
26/02:00pm 14.0 7.6 9.2 73 2.5 WSW 33 46 18 25 1022.0 - 5.4
26/01:30pm 18.1 14.6 11.0 63 3.9 NW 20 32 11 17 1021.1 - 5.4
26/01:00pm 16.7 15.8 11.4 71 2.9 NNE 7 11 4 6 1022.0 - 5.4
26/12:30pm 16.3 15.4 10.6 69 3.1 N 6 9 3 5 1022.6 - 5.4
26/12:00pm 16.7 16.3 12.3 75 2.4 N 6 9 3 5 1023.1 1023.4 5.4
26/11:30am 14.9 14.3 12.2 84 1.5 N 7 9 4 5 1023.4 - 5.4
26/11:00am 13.3 12.5 12.8 97 0.3 N 9 11 5 6 1023.7 - 5.4
26/10:30am 12.8 11.2 11.5 92 0.7 NNW 11 17 6 9 1024.7 - 5.2
26/10:00am 13.3 9.2 11.5 89 1.0 N 24 37 13 20 1024.5 - 3.0
26/09:30am 12.3 10.9 12.1 99 0.1 NW 11 15 6 8 1024.8 - 0.2
26/09:00am 12.0 10.5 11.8 99 0.1 NNE 11 17 6 9 1024.3 1024.6 21.6
26/08:30am 12.0 11.4 11.8 99 0.1 NNW 6 15 3 8 1024.9 - 19.2
26/08:00am 11.9 12.4 11.7 99 0.1 CALM 0 2 0 1 1025.1 - 15.8
26/07:30am 12.1 12.7 11.9 99 0.1 CALM 0 6 0 3 1024.5 - 13.2
26/07:00am 11.6 12.0 11.4 99 0.1 CALM 0 2 0 1 1023.8 - 13.2
26/06:30am 11.8 12.3 11.6 99 0.1 CALM 0 7 0 4 1023.9 - 13.2
26/06:00am 11.9 10.7 11.7 99 0.1 E 9 13 5 7 1023.9 1024.2 13.0
26/05:30am 12.2 12.1 12.0 99 0.1 NE 4 7 2 4 1024.5 - 11.6
26/05:00am 12.4 11.8 12.2 99 0.1 NE 7 9 4 5 1023.9 - 11.4
26/04:30am 12.3 10.1 12.1 99 0.1 NE 15 19 8 10 1023.8 - 11.0
26/04:00am 12.1 11.6 11.9 99 0.1 NW 6 11 3 6 1023.8 - 9.2
26/03:30am 12.2 10.0 12.0 99 0.1 ESE 15 20 8 11 1023.3 - 6.0
26/03:00am 11.9 10.3 11.7 99 0.1 WSW 11 20 6 11 1023.5 1023.8 5.6
26/02:30am 11.5 9.8 11.3 99 0.1 ENE 11 15 6 8 1022.6 - 5.6
26/02:00am 11.4 11.0 11.2 99 0.1 W 4 9 2 5 1023.7 - 5.0
26/01:30am 11.4 10.6 11.2 99 0.1 NE 6 13 3 7 1023.3 - 4.4
26/01:00am 10.8 8.9 10.6 99 0.1 NW 11 15 6 8 1024.3 - 1.8
26/12:30am 10.2 9.9 10.0 99 0.1 W 2 6 1 3 1023.6 - 0.0
26/12:00am 10.6 9.4 10.4 99 0.1 S 7 9 4 5 1023.6 1023.9 0.0
 
Date/Time
EST
Temp
°C
App
Temp
°C
Dew
Point
Rel
Hum
%
Delta-T
°C
Wind Press
QNH
hPa
Press
MSL
hPa
Rain
since 9 am
mm
Dir
 
Spd
km/h
Gust
km/h
Spd
kts
Gust
kts
25/11:30pm 10.7 10.8 10.1 96 0.3 CALM 0 6 0 3 1023.4 - 0.0
25/11:00pm 9.9 7.8 9.8 99 0.1 SW 11 17 6 9 1023.7 - 0.0
25/10:30pm 10.1 9.0 9.9 99 0.1 E 6 13 3 7 1023.5 - 0.0
25/10:00pm 10.3 9.0 10.0 98 0.2 W 7 11 4 6 1023.5 - 0.0
25/09:30pm 11.5 11.5 11.2 98 0.2 S 2 6 1 3 1023.5 - 0.0
25/09:00pm 11.3 10.6 10.0 92 0.7 ESE 4 7 2 4 1023.6 1023.9 0.0
25/08:30pm 12.8 11.9 11.2 90 0.9 WNW 7 11 4 6 1023.7 - 0.0
25/08:00pm 12.7 12.8 11.6 93 0.6 WNW 2 7 1 4 1023.1 - 0.0
25/07:30pm 12.6 11.7 11.5 93 0.6 W 7 11 4 6 1023.5 - 0.0
25/07:00pm 12.8 11.6 11.5 92 0.7 NE 9 13 5 7 1023.5 - 0.0
25/06:30pm 13.2 12.1 11.8 91 0.8 WSW 9 11 5 6 1024.4 - 0.0
25/06:00pm 13.5 13.1 11.2 86 1.2 SE 4 9 2 5 1023.9 1024.2 0.0
25/05:30pm 14.2 11.8 11.4 83 1.5 SSE 15 19 8 10 1023.3 - 0.0
25/05:00pm 15.4 12.8 10.6 73 2.6 SE 15 17 8 9 1023.0 - 0.0
25/04:30pm 17.1 16.0 10.0 63 3.8 ESE 6 9 3 5 1022.4 - 0.0
25/04:00pm 17.7 15.6 9.6 59 4.3 WSW 11 13 6 7 1022.3 - 0.0
25/03:30pm 18.7 16.1 9.2 54 5.0 WSW 13 17 7 9 1022.2 - 0.0
25/03:00pm 19.6 17.4 9.2 51 5.5 W 11 15 6 8 1022.3 1022.6 0.0
25/02:30pm 19.4 15.9 8.7 50 5.6 WNW 17 24 9 13 1022.2 - 0.0
25/02:00pm 19.7 15.7 8.1 47 6.1 WNW 19 28 10 15 1022.0 - 0.0
25/01:30pm 20.1 16.4 8.1 46 6.3 WNW 17 32 9 17 1021.9 - 0.0
25/01:00pm 19.5 16.2 8.2 48 5.9 NW 15 22 8 12 1021.9 - 0.0
25/12:30pm 18.5 15.2 7.9 50 5.5 NW 15 19 8 10 1022.5 - 0.0
25/12:00pm 18.9 17.0 7.7 48 5.8 NW 7 15 4 8 1023.2 1023.5 0.0
25/11:30am 19.3 16.7 7.7 47 6.0 WNW 11 17 6 9 1023.8 - 0.0
25/11:00am 20.1 15.8 7.1 43 6.7 WNW 19 28 10 15 1024.1 - 0.0
25/10:30am 19.5 16.2 7.9 47 6.0 NW 15 20 8 11 1024.2 - 0.0
25/10:00am 18.8 17.1 8.5 51 5.4 N 7 15 4 8 1024.5 - 0.0
25/09:30am 17.2 15.6 8.9 58 4.3 SSE 7 11 4 6 1024.5 - 0.0
25/09:00am 14.8 13.3 9.0 68 3.0 ESE 7 9 4 5 1024.0 1024.3 0.0
25/08:30am 11.1 9.6 7.0 76 2.0 SSE 4 13 2 7 1023.5 - 0.0
25/08:00am 9.3 8.2 7.1 86 1.0 SW 2 9 1 5 1023.3 - 0.0
25/07:30am 8.6 6.0 6.2 85 1.1 E 9 13 5 7 1022.3 - 0.0
25/07:00am 6.3 3.8 3.6 83 1.2 WNW 6 11 3 6 1021.7 - 0.0
25/06:30am 8.8 5.9 4.6 75 1.9 WNW 9 11 5 6 1021.2 - 0.0
25/06:17am 10.4 6.5 3.4 62 3.1 NW 13 17 7 9 1021.0 - 0.0
25/06:00am 15.9 12.2 6.3 53 4.7 N 15 24 8 13 1020.6 1020.9 0.0
25/05:30am 15.7 11.8 7.2 57 4.3 N 17 28 9 15 1019.9 - 0.0
25/05:14am 13.4 10.9 9.8 79 1.9 N 13 26 7 14 1020.0 - 0.0
25/05:00am 8.3 6.2 8.2 99 0.0 N 9 15 5 8 1020.1 - 0.0
25/04:30am 4.5 1.9 4.4 99 0.0 NW 7 11 4 6 1020.1 - 0.0
25/04:00am 5.3 4.2 5.2 99 0.0 CALM 0 7 0 4 1020.3 - 0.0
25/03:30am 4.7 3.5 4.6 99 0.0 CALM 0 6 0 3 1020.4 - 0.0
25/03:00am 5.7 4.3 5.6 99 0.0 W 2 9 1 5 1020.2 1020.5 0.0
25/02:30am 5.8 3.7 5.7 99 0.0 W 6 9 3 5 1020.1 - 0.0
25/02:00am 5.6 3.3 5.5 99 0.0 W 7 9 4 5 1020.3 - 0.0
25/01:30am 5.7 3.4 5.6 99 0.0 W 7 11 4 6 1020.2 - 0.0
25/01:00am 4.7 3.1 4.6 99 0.0 W 2 7 1 4 1020.2 - 0.0
25/12:30am 5.1 4.0 5.0 99 0.0 CALM 0 0 0 0 1020.3 - 0.0
25/12:00am 6.0 5.1 5.9 99 0.0 CALM 0 6 0 3 1020.4 1020.7 0.0
 
Date/Time
EST
Temp
°C
App
Temp
°C
Dew
Point
Rel
Hum
%
Delta-T
°C
Wind Press
QNH
hPa
Press
MSL
hPa
Rain
since 9 am
mm
Dir
 
Spd
km/h
Gust
km/h
Spd
kts
Gust
kts
24/11:30pm 5.9 4.9 5.8 99 0.0 CALM 0 0 0 0 1020.6 - 0.0
24/11:00pm 6.0 3.7 5.9 99 0.0 WNW 7 11 4 6 1020.8 - 0.0
24/10:30pm 6.6 5.7 6.2 97 0.2 CALM 0 0 0 0 1020.8 - 0.0
24/10:00pm 6.6 5.3 5.9 95 0.3 WSW 2 6 1 3 1020.9 - 0.0
24/09:30pm 7.3 6.5 6.4 94 0.4 CALM 0 0 0 0 1020.8 - 0.0
24/09:00pm 7.8 7.0 6.3 90 0.7 CALM 0 0 0 0 1020.7 1021.0 0.0
24/08:30pm 8.2 6.1 5.7 84 1.1 WNW 6 9 3 5 1020.6 - 0.0
24/08:00pm 9.7 9.0 7.0 83 1.3 CALM 0 0 0 0 1020.4 - 0.0
24/07:30pm 9.6 8.1 6.7 82 1.4 NNE 4 7 2 4 1020.3 - 0.0
24/07:00pm 10.8 9.1 7.5 80 1.6 SW 6 7 3 4 1020.1 - 0.0
24/06:30pm 11.1 10.1 7.4 78 1.8 SW 2 6 1 3 1019.8 - 0.0
24/06:00pm 12.1 11.0 6.8 70 2.6 S 2 6 1 3 1019.4 1019.7 0.0
24/05:30pm 13.6 12.8 6.7 63 3.4 CALM 0 0 0 0 1019.1 - 0.0
24/05:00pm 15.0 14.2 6.3 56 4.3 CALM 0 0 0 0 1019.2 - 0.0
24/04:30pm 16.8 16.1 6.9 52 5.0 CALM 0 0 0 0 1019.0 - 0.0
24/04:00pm 17.1 16.3 6.6 50 5.2 CALM 0 0 0 0 1018.9 - 0.0
24/03:30pm 17.7 16.7 7.4 51 5.2 NE 2 7 1 4 1019.0 - 0.0
24/03:00pm 17.5 17.1 8.1 54 4.8 CALM 0 0 0 0 1019.1 1019.4 0.0
24/02:30pm 15.9 15.3 7.4 57 4.3 CALM 0 0 0 0 1019.3 - 0.0
24/02:00pm 15.3 14.7 7.3 59 4.0 CALM 0 0 0 0 1019.7 - 0.0
24/01:30pm 15.1 14.7 8.3 64 3.5 CALM 0 0 0 0 1020.0 - 0.0
24/01:00pm 15.1 14.6 7.9 62 3.6 CALM 0 0 0 0 1020.3 - 0.0
24/12:30pm 15.1 13.5 8.1 63 3.6 NE 6 7 3 4 1020.8 - 0.0
24/12:00pm 14.8 14.0 8.3 65 3.3 NE 2 6 1 3 1021.2 1021.6 0.0
24/11:30am 13.3 12.7 9.0 75 2.2 WSW 2 6 1 3 1021.8 - 0.0
24/11:00am 11.6 11.2 9.7 88 1.0 E 2 9 1 5 1022.4 - 0.0
24/10:30am 9.8 9.8 9.7 99 0.1 CALM 0 0 0 0 1022.7 - 0.0
24/10:00am 8.4 7.6 8.3 99 0.0 E 2 6 1 3 1022.9 - 0.0
24/09:30am 7.4 6.4 7.3 99 0.0 SE 2 6 1 3 1022.9 - 0.0
24/09:00am 6.4 5.6 6.3 99 0.0 CALM 0 0 0 0 1022.4 1022.7 0.2
24/08:30am 5.7 4.7 5.6 99 0.0 CALM 0 0 0 0 1022.3 - 0.2
24/08:00am 4.6 3.4 4.5 99 0.0 CALM 0 0 0 0 1021.8 - 0.2
24/07:30am 4.0 2.3 3.9 99 0.0 W 2 6 1 3 1021.7 - 0.2
24/07:00am 4.1 2.8 4.0 99 0.0 CALM 0 0 0 0 1021.0 - 0.2
24/06:30am 4.0 2.3 3.9 99 0.0 NW 2 7 1 4 1020.6 - 0.2
24/06:00am 4.0 2.7 3.9 99 0.0 CALM 0 0 0 0 1020.6 1020.9 0.2
24/05:30am 3.7 2.3 3.6 99 0.0 CALM 0 0 0 0 1020.4 - 0.0
24/05:00am 2.9 1.4 2.8 99 0.0 CALM 0 0 0 0 1020.3 - 0.0
24/04:30am 2.6 1.0 2.5 99 0.0 CALM 0 0 0 0 1020.2 - 0.0
24/04:00am 3.2 1.7 3.1 99 0.0 CALM 0 0 0 0 1020.2 - 0.0
24/03:30am 3.5 2.1 3.4 99 0.0 CALM 0 0 0 0 1020.2 - 0.0
24/03:00am 3.2 1.7 3.1 99 0.0 CALM 0 0 0 0 1020.4 1020.7 0.0
24/02:30am 3.6 2.2 3.5 99 0.0 CALM 0 0 0 0 1020.5 - 0.0
24/02:00am 4.0 2.7 3.9 99 0.0 CALM 0 0 0 0 1020.9 - 0.0
24/01:30am 4.5 3.3 4.4 99 0.0 CALM 0 0 0 0 1020.9 - 0.0
24/01:00am 4.3 3.0 4.2 99 0.0 CALM 0 0 0 0 1021.2 - 0.0
24/12:30am 4.8 2.5 4.7 99 0.0 WNW 6 11 3 6 1021.2 - 0.0
24/12:00am 4.8 3.2 4.4 97 0.2 W 2 9 1 5 1021.4 1021.8 0.0
 
Date/Time
EST
Temp
°C
App
Temp
°C
Dew
Point
Rel
Hum
%
Delta-T
°C
Wind Press
QNH
hPa
Press
MSL
hPa
Rain
since 9 am
mm
Dir
 
Spd
km/h
Gust
km/h
Spd
kts
Gust
kts
23/11:30pm 5.9 4.8 5.3 96 0.3 CALM 0 0 0 0 1021.4 - 0.0
23/11:00pm 6.3 5.4 5.9 97 0.2 CALM 0 0 0 0 1022.0 - 0.0
23/10:30pm 6.1 5.1 5.7 97 0.2 CALM 0 0 0 0 1022.0 - 0.0
23/10:00pm 6.6 5.6 5.6 93 0.4 CALM 0 0 0 0 1021.9 - 0.0
23/09:30pm 7.2 6.2 5.5 89 0.8 CALM 0 0 0 0 1022.0 - 0.0

Other Formats:

Comma delimited format used in spreadsheet applications
http://www.bom.gov.au/fwo/IDN60801/IDN60801.95758.axf

JavaScript Object Notation format (JSON) in row-major order
http://www.bom.gov.au/fwo/IDN60801/IDN60801.95758.json